createdAt,value
2023-04-15T00:00:00.531Z,2.1
2023-04-15T00:01:00.546Z,2.1
2023-04-15T00:02:00.575Z,2.1
2023-04-15T00:03:00.669Z,2.1
2023-04-15T00:04:00.648Z,2.1
2023-04-15T00:05:00.660Z,2
2023-04-15T00:06:00.544Z,2
2023-04-15T00:07:00.511Z,2
2023-04-15T00:08:00.540Z,2
2023-04-15T00:09:00.817Z,2
2023-04-15T00:10:00.564Z,2
2023-04-15T00:11:00.532Z,2
2023-04-15T00:12:00.532Z,1.9
2023-04-15T00:13:00.535Z,2
2023-04-15T00:14:00.533Z,2
2023-04-15T00:15:00.601Z,1.9
2023-04-15T00:16:00.521Z,1.9
2023-04-15T00:17:00.592Z,1.9
2023-04-15T00:18:00.667Z,1.9
2023-04-15T00:19:00.849Z,1.9
2023-04-15T00:20:00.589Z,1.9
2023-04-15T00:21:00.550Z,1.9
2023-04-15T00:22:00.526Z,1.8
2023-04-15T00:23:00.555Z,1.8
2023-04-15T00:24:00.527Z,1.8
2023-04-15T00:25:00.551Z,1.8
2023-04-15T00:26:00.531Z,1.8
2023-04-15T00:27:00.557Z,1.8
2023-04-15T00:28:00.571Z,1.8
2023-04-15T00:29:00.810Z,1.8
2023-04-15T00:30:00.849Z,1.8
2023-04-15T00:31:00.565Z,1.7
2023-04-15T00:32:00.566Z,1.7
2023-04-15T00:33:00.609Z,1.7
2023-04-15T00:34:00.544Z,1.6
2023-04-15T00:35:00.592Z,1.6
2023-04-15T00:36:00.618Z,1.6
2023-04-15T00:37:00.586Z,1.6
2023-04-15T00:38:00.628Z,1.6
2023-04-15T00:39:00.866Z,1.6
2023-04-15T00:40:00.600Z,1.6
2023-04-15T00:41:00.600Z,1.6
2023-04-15T00:42:00.573Z,1.6
2023-04-15T00:43:00.636Z,1.6
2023-04-15T00:44:00.585Z,1.6
2023-04-15T00:45:00.584Z,1.6
2023-04-15T00:46:00.601Z,1.6
2023-04-15T00:47:00.575Z,1.6
2023-04-15T00:48:00.672Z,1.6
2023-04-15T00:49:00.819Z,1.6
2023-04-15T00:50:00.610Z,1.6
2023-04-15T00:51:00.579Z,1.5
2023-04-15T00:52:00.569Z,1.5
2023-04-15T00:53:00.559Z,1.5
2023-04-15T00:54:00.585Z,1.5
2023-04-15T00:55:00.587Z,1.5
2023-04-15T00:56:00.588Z,1.5
2023-04-15T00:57:00.565Z,1.5
2023-04-15T00:58:00.586Z,1.5
2023-04-15T00:59:00.762Z,1.4
2023-04-15T01:00:00.618Z,1.4
2023-04-15T01:01:00.628Z,1.4
2023-04-15T01:02:00.723Z,1.4
2023-04-15T01:03:00.929Z,1.4
2023-04-15T01:04:00.739Z,1.4
2023-04-15T01:05:00.639Z,1.4
2023-04-15T01:06:02.209Z,1.4
2023-04-15T01:07:00.602Z,1.4
2023-04-15T01:08:00.627Z,1.4
2023-04-15T01:09:00.874Z,1.4
2023-04-15T01:10:00.592Z,1.4
2023-04-15T01:11:00.625Z,1.4
2023-04-15T01:12:00.592Z,1.4
2023-04-15T01:13:00.578Z,1.4
2023-04-15T01:14:00.610Z,1.4
2023-04-15T01:15:00.590Z,1.4
2023-04-15T01:16:00.653Z,1.4
2023-04-15T01:17:00.603Z,1.4
2023-04-15T01:18:00.667Z,1.4
2023-04-15T01:19:00.840Z,1.4
2023-04-15T01:20:00.609Z,1.4
2023-04-15T01:21:00.611Z,1.4
2023-04-15T01:22:00.589Z,1.4
2023-04-15T01:23:00.592Z,1.4
2023-04-15T01:24:00.639Z,1.4
2023-04-15T01:25:00.613Z,1.5
2023-04-15T01:26:00.623Z,1.4
2023-04-15T01:27:00.657Z,1.4
2023-04-15T01:28:00.590Z,1.5
2023-04-15T01:29:00.788Z,1.5
2023-04-15T01:30:00.680Z,1.5
2023-04-15T01:31:00.678Z,1.5
2023-04-15T01:32:00.613Z,1.5
2023-04-15T01:33:00.663Z,1.5
2023-04-15T01:34:00.607Z,1.5
2023-04-15T01:35:00.623Z,1.5
2023-04-15T01:36:00.647Z,1.5
2023-04-15T01:37:00.623Z,1.5
2023-04-15T01:38:00.612Z,1.5
2023-04-15T01:39:00.890Z,1.5
2023-04-15T01:40:00.626Z,1.5
2023-04-15T01:41:00.618Z,1.5
2023-04-15T01:42:00.660Z,1.5
2023-04-15T01:43:00.613Z,1.5
2023-04-15T01:44:00.616Z,1.5
2023-04-15T01:45:00.657Z,1.5
2023-04-15T01:46:00.666Z,1.4
2023-04-15T01:47:00.669Z,1.4
2023-04-15T01:48:00.684Z,1.4
2023-04-15T01:49:00.775Z,1.4
2023-04-15T01:50:00.640Z,1.4
2023-04-15T01:51:00.652Z,1.4
2023-04-15T01:52:00.628Z,1.4
2023-04-15T01:53:00.631Z,1.4
2023-04-15T01:54:00.627Z,1.4
2023-04-15T01:55:00.657Z,1.3
2023-04-15T01:56:00.640Z,1.3
2023-04-15T01:57:00.640Z,1.2
2023-04-15T01:58:00.649Z,1.2
2023-04-15T01:59:00.857Z,1.2
2023-04-15T02:00:00.817Z,1.1
2023-04-15T02:01:01.575Z,1.1
2023-04-15T02:02:01.564Z,1.1
2023-04-15T02:03:01.555Z,1
2023-04-15T02:04:01.563Z,1
2023-04-15T02:05:01.531Z,0.9
2023-04-15T02:06:01.537Z,0.9
2023-04-15T02:07:01.679Z,0.9
2023-04-15T02:08:01.503Z,0.9
2023-04-15T02:09:01.782Z,0.9
2023-04-15T02:10:01.621Z,0.9
2023-04-15T02:11:01.492Z,0.8
2023-04-15T02:12:01.511Z,0.8
2023-04-15T02:13:01.507Z,0.8
2023-04-15T02:14:01.521Z,0.8
2023-04-15T02:15:01.538Z,0.8
2023-04-15T02:16:01.610Z,0.8
2023-04-15T02:17:01.507Z,0.8
2023-04-15T02:18:01.599Z,0.8
2023-04-15T02:19:01.801Z,0.8
2023-04-15T02:20:01.569Z,0.8
2023-04-15T02:21:01.512Z,0.8
2023-04-15T02:22:01.526Z,0.8
2023-04-15T02:23:01.574Z,0.7
2023-04-15T02:24:01.511Z,0.7
2023-04-15T02:25:01.545Z,0.7
2023-04-15T02:26:01.510Z,0.7
2023-04-15T02:27:01.514Z,0.7
2023-04-15T02:28:01.521Z,0.6
2023-04-15T02:29:01.637Z,0.6
2023-04-15T02:30:01.567Z,0.6
2023-04-15T02:31:01.521Z,0.6
2023-04-15T02:32:01.617Z,0.6
2023-04-15T02:33:01.573Z,0.6
2023-04-15T02:34:01.532Z,0.6
2023-04-15T02:35:01.597Z,0.5
2023-04-15T02:36:01.540Z,0.5
2023-04-15T02:37:01.669Z,0.5
2023-04-15T02:38:01.523Z,0.5
2023-04-15T02:39:01.636Z,0.5
2023-04-15T02:40:01.684Z,0.5
2023-04-15T02:41:01.543Z,0.4
2023-04-15T02:42:01.637Z,0.4
2023-04-15T02:43:01.534Z,0.4
2023-04-15T02:44:01.545Z,0.4
2023-04-15T02:45:01.564Z,0.4
2023-04-15T02:46:01.575Z,0.4
2023-04-15T02:47:01.539Z,0.4
2023-04-15T02:48:01.557Z,0.4
2023-04-15T02:49:01.640Z,0.4
2023-04-15T02:50:01.578Z,0.4
2023-04-15T02:51:01.546Z,0.4
2023-04-15T02:52:01.591Z,0.4
2023-04-15T02:53:01.878Z,0.4
2023-04-15T02:54:01.592Z,0.4
2023-04-15T02:55:01.583Z,0.4
2023-04-15T02:56:01.538Z,0.4
2023-04-15T02:57:01.556Z,0.4
2023-04-15T02:58:01.552Z,0.3
2023-04-15T02:59:01.992Z,0.4
2023-04-15T03:00:01.913Z,0.3
2023-04-15T03:01:01.567Z,0.3
2023-04-15T03:02:01.573Z,0.3
2023-04-15T03:03:01.752Z,0.3
2023-04-15T03:04:01.634Z,0.3
2023-04-15T03:05:01.565Z,0.3
2023-04-15T03:06:01.553Z,0.3
2023-04-15T03:07:01.570Z,0.3
2023-04-15T03:08:01.623Z,0.4
2023-04-15T03:09:01.894Z,0.4
2023-04-15T03:10:01.588Z,0.4
2023-04-15T03:11:01.620Z,0.4
2023-04-15T03:12:01.603Z,0.4
2023-04-15T03:13:01.597Z,0.4
2023-04-15T03:14:01.558Z,0.3
2023-04-15T03:15:01.647Z,0.3
2023-04-15T03:16:01.601Z,0.3
2023-04-15T03:17:01.575Z,0.3
2023-04-15T03:18:01.602Z,0.3
2023-04-15T03:19:01.870Z,0.3
2023-04-15T03:20:01.621Z,0.3
2023-04-15T03:21:01.566Z,0.3
2023-04-15T03:22:01.588Z,0.2
2023-04-15T03:23:01.590Z,0.3
2023-04-15T03:24:01.564Z,0.2
2023-04-15T03:25:01.575Z,0.2
2023-04-15T03:26:01.573Z,0.2
2023-04-15T03:27:01.588Z,0.2
2023-04-15T03:28:01.567Z,0.2
2023-04-15T03:29:01.801Z,0.2
2023-04-15T03:30:01.634Z,0.2
2023-04-15T03:31:01.620Z,0.2
2023-04-15T03:32:01.626Z,0.2
2023-04-15T03:33:01.774Z,0.2
2023-04-15T03:34:01.665Z,0.2
2023-04-15T03:35:01.585Z,0.2
2023-04-15T03:36:01.578Z,0.2
2023-04-15T03:37:01.622Z,0.2
2023-04-15T03:38:01.582Z,0.2
2023-04-15T03:39:01.818Z,0.2
2023-04-15T03:40:01.629Z,0.2
2023-04-15T03:41:01.613Z,0.2
2023-04-15T03:42:01.622Z,0.2
2023-04-15T03:43:01.588Z,0.2
2023-04-15T03:44:01.594Z,0.2
2023-04-15T03:45:01.594Z,0.2
2023-04-15T03:46:02.108Z,0.2
2023-04-15T03:47:01.627Z,0.2
2023-04-15T03:49:01.806Z,0.2
2023-04-15T03:50:01.672Z,0.2
2023-04-15T03:51:01.634Z,0.2
2023-04-15T03:52:01.660Z,0.2
2023-04-15T03:53:01.594Z,0.2
2023-04-15T03:54:01.616Z,0.2
2023-04-15T03:55:01.602Z,0.2
2023-04-15T03:56:01.656Z,0.2
2023-04-15T03:57:01.605Z,0.2
2023-04-15T03:58:01.646Z,0.2
2023-04-15T03:59:01.921Z,0.1
2023-04-15T04:00:01.847Z,0.1
2023-04-15T04:01:01.641Z,0.1
2023-04-15T04:02:01.734Z,0.1
2023-04-15T04:03:01.887Z,0.1
2023-04-15T04:04:01.764Z,0.1
2023-04-15T04:05:01.638Z,0.1
2023-04-15T04:06:01.643Z,0.1
2023-04-15T04:07:01.649Z,0.1
2023-04-15T04:08:01.653Z,0.1
2023-04-15T04:09:01.912Z,0.1
2023-04-15T04:10:01.667Z,0.1
2023-04-15T04:11:01.688Z,0.1
2023-04-15T04:12:01.716Z,0.1
2023-04-15T04:13:01.654Z,0.1
2023-04-15T04:14:01.638Z,0
2023-04-15T04:15:01.747Z,0
2023-04-15T04:16:01.764Z,0
2023-04-15T04:17:01.722Z,0
2023-04-15T04:18:01.751Z,0
2023-04-15T04:19:01.818Z,0
2023-04-15T04:20:01.708Z,0
2023-04-15T04:21:01.662Z,0
2023-04-15T04:22:01.691Z,-0.1
2023-04-15T04:23:01.648Z,-0.1
2023-04-15T04:24:01.712Z,0
2023-04-15T04:25:01.657Z,-0.1
2023-04-15T04:26:01.663Z,-0.1
2023-04-15T04:27:01.740Z,-0.1
2023-04-15T04:28:01.740Z,-0.1
2023-04-15T04:29:01.913Z,-0.1
2023-04-15T04:30:00.532Z,0
2023-04-15T04:31:00.544Z,0
2023-04-15T04:32:00.573Z,0
2023-04-15T04:33:00.583Z,-0.1
2023-04-15T04:34:00.524Z,0
2023-04-15T04:35:00.517Z,0
2023-04-15T04:36:00.501Z,0
2023-04-15T04:37:00.525Z,0
2023-04-15T04:38:00.504Z,0.1
2023-04-15T04:39:00.826Z,0.1
2023-04-15T04:40:00.529Z,0.1
2023-04-15T04:41:00.498Z,0.1
2023-04-15T04:42:00.527Z,0.1
2023-04-15T04:43:00.502Z,0.1
2023-04-15T04:44:00.549Z,0.1
2023-04-15T04:45:00.504Z,0.2
2023-04-15T04:46:00.573Z,0.2
2023-04-15T04:47:00.549Z,0.2
2023-04-15T04:48:00.570Z,0.2
2023-04-15T04:49:00.658Z,0.2
2023-04-15T04:50:00.649Z,0.3
2023-04-15T04:51:00.503Z,0.4
2023-04-15T04:52:00.536Z,0.4
2023-04-15T04:53:00.559Z,0.4
2023-04-15T04:54:02.450Z,0.4
2023-04-15T04:55:00.544Z,0.5
2023-04-15T04:56:00.511Z,0.5
2023-04-15T04:57:00.555Z,0.6
2023-04-15T04:58:00.523Z,0.6
2023-04-15T04:59:00.809Z,0.7
2023-04-15T05:00:00.736Z,0.7
2023-04-15T05:01:00.578Z,0.7
2023-04-15T05:02:00.707Z,0.8
2023-04-15T05:03:00.817Z,0.8
2023-04-15T05:04:00.860Z,0.9
2023-04-15T05:05:00.520Z,0.9
2023-04-15T05:06:00.528Z,0.9
2023-04-15T05:07:00.547Z,1
2023-04-15T05:08:00.530Z,1
2023-04-15T05:09:00.905Z,1.1
2023-04-15T05:10:00.584Z,1.1
2023-04-15T05:11:00.551Z,1.2
2023-04-15T05:12:00.546Z,1.2
2023-04-15T05:13:00.527Z,1.2
2023-04-15T05:14:00.562Z,1.2
2023-04-15T05:15:00.576Z,1.3
2023-04-15T05:16:00.583Z,1.4
2023-04-15T05:17:00.548Z,1.4
2023-04-15T05:18:00.569Z,1.4
2023-04-15T05:19:00.883Z,1.5
2023-04-15T05:20:00.547Z,1.6
2023-04-15T05:21:00.572Z,1.6
2023-04-15T05:22:00.565Z,1.6
2023-04-15T05:23:00.546Z,1.7
2023-04-15T05:24:00.553Z,1.8
2023-04-15T05:25:00.587Z,1.8
2023-04-15T05:26:00.583Z,1.8
2023-04-15T05:27:00.595Z,1.9
2023-04-15T05:28:00.563Z,1.9
2023-04-15T05:29:00.880Z,1.9
2023-04-15T05:30:00.585Z,1.9
2023-04-15T05:31:00.594Z,2
2023-04-15T05:32:00.585Z,2.1
2023-04-15T05:33:00.577Z,2.1
2023-04-15T05:34:00.563Z,2.1
2023-04-15T05:35:00.559Z,2.1
2023-04-15T05:36:00.583Z,2.2
2023-04-15T05:37:00.580Z,2.2
2023-04-15T05:38:00.571Z,2.2
2023-04-15T05:39:00.978Z,2.3
2023-04-15T05:40:00.601Z,2.3
2023-04-15T05:41:00.563Z,2.3
2023-04-15T05:42:00.589Z,2.4
2023-04-15T05:43:00.563Z,2.4
2023-04-15T05:44:00.607Z,2.4
2023-04-15T05:45:00.563Z,2.4
2023-04-15T05:46:00.600Z,2.5
2023-04-15T05:47:00.591Z,2.6
2023-04-15T05:48:00.637Z,2.6
2023-04-15T05:49:00.884Z,2.6
2023-04-15T05:50:00.565Z,2.7
2023-04-15T05:51:00.597Z,2.8
2023-04-15T05:52:00.588Z,2.8
2023-04-15T05:53:00.575Z,2.8
2023-04-15T05:54:00.595Z,2.9
2023-04-15T05:55:00.614Z,2.9
2023-04-15T05:56:00.616Z,2.9
2023-04-15T05:57:00.593Z,3
2023-04-15T05:58:00.575Z,3
2023-04-15T05:59:00.908Z,3.1
2023-04-15T06:00:00.576Z,3.1
2023-04-15T06:01:00.589Z,3.1
2023-04-15T06:02:00.604Z,3.1
2023-04-15T06:03:00.704Z,3.2
2023-04-15T06:04:00.716Z,3.2
2023-04-15T06:05:00.731Z,3.2
2023-04-15T06:06:00.595Z,3.2
2023-04-15T06:07:00.588Z,3.3
2023-04-15T06:08:00.603Z,3.4
2023-04-15T06:09:00.930Z,3.4
2023-04-15T06:10:00.619Z,3.4
2023-04-15T06:11:00.600Z,3.5
2023-04-15T06:12:00.590Z,3.6
2023-04-15T06:13:00.585Z,3.6
2023-04-15T06:14:00.612Z,3.6
2023-04-15T06:15:00.618Z,3.6
2023-04-15T06:16:00.625Z,3.7
2023-04-15T06:17:00.615Z,3.8
2023-04-15T06:18:00.638Z,3.8
2023-04-15T06:19:01.054Z,3.8
2023-04-15T06:20:00.596Z,3.9
2023-04-15T06:21:00.638Z,3.9
2023-04-15T06:22:00.614Z,3.9
2023-04-15T06:23:00.614Z,4
2023-04-15T06:24:00.633Z,4.1
2023-04-15T06:25:00.620Z,4.1
2023-04-15T06:26:00.626Z,4.1
2023-04-15T06:27:00.604Z,4.2
2023-04-15T06:28:00.612Z,4.2
2023-04-15T06:29:00.917Z,4.3
2023-04-15T06:30:00.608Z,4.4
2023-04-15T06:31:00.628Z,4.4
2023-04-15T06:32:00.679Z,4.5
2023-04-15T06:33:00.707Z,4.6
2023-04-15T06:34:00.639Z,4.6
2023-04-15T06:35:00.633Z,4.7
2023-04-15T06:36:00.647Z,4.8
2023-04-15T06:37:00.617Z,4.8
2023-04-15T06:38:00.621Z,4.8
2023-04-15T06:39:00.812Z,4.9
2023-04-15T06:40:00.647Z,5
2023-04-15T06:41:00.656Z,5.1
2023-04-15T06:42:00.618Z,5.1
2023-04-15T06:43:00.618Z,5.2
2023-04-15T06:44:00.651Z,5.2
2023-04-15T06:45:00.633Z,5.2
2023-04-15T06:46:00.674Z,5.3
2023-04-15T06:47:00.644Z,5.4
2023-04-15T06:48:00.760Z,5.4
2023-04-15T06:49:00.790Z,5.4
2023-04-15T06:50:00.620Z,5.5
2023-04-15T06:51:00.657Z,5.6
2023-04-15T06:52:00.664Z,5.6
2023-04-15T06:53:00.652Z,5.7
2023-04-15T06:54:00.645Z,5.7
2023-04-15T06:55:00.686Z,5.8
2023-04-15T06:56:00.664Z,5.8
2023-04-15T06:57:00.643Z,5.8
2023-04-15T06:58:00.701Z,5.9
2023-04-15T06:59:00.881Z,5.9
2023-04-15T07:00:00.722Z,5.9
2023-04-15T07:01:00.693Z,6
2023-04-15T07:02:00.710Z,6.1
2023-04-15T07:03:00.718Z,6.1
2023-04-15T07:04:00.737Z,6.2
2023-04-15T07:05:00.678Z,6.2
2023-04-15T07:06:00.678Z,6.3
2023-04-15T07:07:00.662Z,6.4
2023-04-15T07:08:00.662Z,6.4
2023-04-15T07:09:00.987Z,6.6
2023-04-15T07:10:00.674Z,6.6
2023-04-15T07:11:00.676Z,6.7
2023-04-15T07:12:00.643Z,6.8
2023-04-15T07:13:00.644Z,6.9
2023-04-15T07:14:00.654Z,7
2023-04-15T07:15:00.693Z,7.1
2023-04-15T07:16:00.644Z,7.1
2023-04-15T07:17:00.728Z,7.2
2023-04-15T07:18:00.721Z,7.3
2023-04-15T07:19:00.923Z,7.4
2023-04-15T07:20:00.666Z,7.4
2023-04-15T07:21:00.668Z,7.4
2023-04-15T07:22:00.647Z,7.5
2023-04-15T07:23:00.674Z,7.6
2023-04-15T07:24:00.652Z,7.6
2023-04-15T07:25:00.675Z,7.6
2023-04-15T07:26:00.671Z,7.7
2023-04-15T07:27:01.384Z,7.8
2023-04-15T07:28:00.678Z,7.8
2023-04-15T07:29:00.972Z,7.8
2023-04-15T07:30:00.684Z,7.9
2023-04-15T07:31:00.686Z,7.9
2023-04-15T07:32:00.670Z,8
2023-04-15T07:33:00.706Z,8.1
2023-04-15T07:34:00.676Z,8.2
2023-04-15T07:35:00.681Z,8.2
2023-04-15T07:36:00.688Z,8.2
2023-04-15T07:37:00.696Z,8.3
2023-04-15T07:38:00.690Z,8.4
2023-04-15T07:39:00.916Z,8.4
2023-04-15T07:40:00.706Z,8.5
2023-04-15T07:41:00.674Z,8.6
2023-04-15T07:42:00.667Z,8.6
2023-04-15T07:43:00.677Z,8.7
2023-04-15T07:44:00.691Z,8.7
2023-04-15T07:45:00.704Z,8.8
2023-04-15T07:46:00.703Z,8.8
2023-04-15T07:47:00.697Z,8.9
2023-04-15T07:48:00.724Z,8.9
2023-04-15T07:49:01.030Z,8.9
2023-04-15T07:50:00.722Z,9
2023-04-15T07:51:00.680Z,9
2023-04-15T07:52:00.680Z,9.1
2023-04-15T07:53:00.701Z,9.1
2023-04-15T07:54:00.752Z,9.1
2023-04-15T07:55:00.712Z,9.2
2023-04-15T07:56:00.684Z,9.3
2023-04-15T07:57:00.703Z,9.3
2023-04-15T07:58:00.700Z,9.4
2023-04-15T07:59:00.881Z,9.4
2023-04-15T08:00:00.765Z,9.4
2023-04-15T08:01:00.691Z,9.4
2023-04-15T08:02:00.814Z,9.5
2023-04-15T08:03:00.970Z,9.5
2023-04-15T08:04:00.910Z,9.6
2023-04-15T08:05:00.801Z,9.6
2023-04-15T08:06:00.762Z,9.6
2023-04-15T08:07:00.729Z,9.6
2023-04-15T08:08:00.702Z,9.7
2023-04-15T08:09:01.162Z,9.8
2023-04-15T08:10:00.734Z,9.8
2023-04-15T08:11:00.723Z,9.8
2023-04-15T08:12:00.722Z,9.8
2023-04-15T08:13:00.705Z,9.8
2023-04-15T08:14:00.717Z,9.9
2023-04-15T08:15:00.761Z,9.9
2023-04-15T08:16:00.818Z,9.9
2023-04-15T08:17:00.713Z,10
2023-04-15T08:18:00.879Z,10.1
2023-04-15T08:19:00.888Z,10.1
2023-04-15T08:20:00.742Z,10.1
2023-04-15T08:21:00.740Z,10.2
2023-04-15T08:22:00.710Z,10.2
2023-04-15T08:23:00.713Z,10.2
2023-04-15T08:24:00.721Z,10.2
2023-04-15T08:25:00.765Z,10.3
2023-04-15T08:26:00.720Z,10.4
2023-04-15T08:27:00.750Z,10.4
2023-04-15T08:28:00.729Z,10.4
2023-04-15T08:29:00.994Z,10.4
2023-04-15T08:30:02.771Z,10.5
2023-04-15T08:31:00.736Z,10.6
2023-04-15T08:32:00.797Z,10.5
2023-04-15T08:33:00.773Z,10.6
2023-04-15T08:34:00.738Z,10.6
2023-04-15T08:35:00.756Z,10.8
2023-04-15T08:36:00.746Z,10.8
2023-04-15T08:37:00.758Z,10.9
2023-04-15T08:38:00.727Z,10.9
2023-04-15T08:39:00.987Z,11
2023-04-15T08:40:00.753Z,11.1
2023-04-15T08:41:00.728Z,11.1
2023-04-15T08:42:00.942Z,11.2
2023-04-15T08:43:00.755Z,11.2
2023-04-15T08:44:00.733Z,11.3
2023-04-15T08:45:00.816Z,11.4
2023-04-15T08:46:00.725Z,11.4
2023-04-15T08:47:00.778Z,11.4
2023-04-15T08:48:00.771Z,11.4
2023-04-15T08:49:01.131Z,11.5
2023-04-15T08:50:00.764Z,11.6
2023-04-15T08:51:00.809Z,11.6
2023-04-15T08:52:00.785Z,11.6
2023-04-15T08:53:00.770Z,11.6
2023-04-15T08:54:00.765Z,11.7
2023-04-15T08:55:00.778Z,11.8
2023-04-15T08:56:00.795Z,11.8
2023-04-15T08:57:00.804Z,11.7
2023-04-15T08:58:00.760Z,11.6
2023-04-15T08:59:01.192Z,11.6
2023-04-15T09:00:02.913Z,11.6
2023-04-15T09:01:00.769Z,11.6
2023-04-15T09:02:00.766Z,11.6
2023-04-15T09:03:00.810Z,11.7
2023-04-15T09:04:00.803Z,11.7
2023-04-15T09:05:00.789Z,11.7
2023-04-15T09:06:00.796Z,11.7
2023-04-15T09:07:00.772Z,11.6
2023-04-15T09:08:00.808Z,11.6
2023-04-15T09:09:01.059Z,11.7
2023-04-15T09:10:00.793Z,11.7
2023-04-15T09:11:00.772Z,11.6
2023-04-15T09:12:00.800Z,11.6
2023-04-15T09:13:00.782Z,11.6
2023-04-15T09:14:00.811Z,11.6
2023-04-15T09:15:00.801Z,11.6
2023-04-15T09:16:00.794Z,11.6
2023-04-15T09:17:00.874Z,11.6
2023-04-15T09:18:00.864Z,11.6
2023-04-15T09:19:01.004Z,11.7
2023-04-15T09:20:00.794Z,11.8
2023-04-15T09:21:00.833Z,11.8
2023-04-15T09:22:00.778Z,11.8
2023-04-15T09:23:00.826Z,11.9
2023-04-15T09:24:01.162Z,11.9
2023-04-15T09:25:00.797Z,11.9
2023-04-15T09:26:00.773Z,12
2023-04-15T09:27:00.819Z,12.1
2023-04-15T09:28:00.834Z,12.1
2023-04-15T09:29:00.779Z,12.1
2023-04-15T09:30:00.808Z,12.2
2023-04-15T09:31:00.802Z,12.2
2023-04-15T09:32:00.808Z,12.2
2023-04-15T09:33:00.868Z,12.4
2023-04-15T09:34:01.043Z,12.4
2023-04-15T09:35:00.808Z,12.5
2023-04-15T09:36:00.798Z,12.6
2023-04-15T09:37:00.934Z,12.6
2023-04-15T09:38:00.810Z,12.6
2023-04-15T09:39:00.804Z,12.7
2023-04-15T09:40:00.810Z,12.8
2023-04-15T09:41:00.815Z,12.8
2023-04-15T09:42:00.799Z,12.9
2023-04-15T09:43:00.793Z,12.9
2023-04-15T09:44:01.132Z,13
2023-04-15T09:45:00.811Z,13
2023-04-15T09:46:00.852Z,13.1
2023-04-15T09:47:00.798Z,13.2
2023-04-15T09:48:00.940Z,13.2
2023-04-15T09:49:00.793Z,13.2
2023-04-15T09:50:00.921Z,13.2
2023-04-15T09:51:00.833Z,13.3
2023-04-15T09:52:05.768Z,13.4
2023-04-15T09:53:00.835Z,13.4
2023-04-15T09:54:01.107Z,13.5
2023-04-15T09:55:00.818Z,13.6
2023-04-15T09:56:00.855Z,13.7
2023-04-15T09:57:00.831Z,13.8
2023-04-15T09:58:00.819Z,13.8
2023-04-15T09:59:00.832Z,13.9
2023-04-15T10:00:00.822Z,13.9
2023-04-15T10:01:00.884Z,14
2023-04-15T10:02:00.830Z,14.1
2023-04-15T10:03:00.949Z,14.1
2023-04-15T10:04:01.086Z,14.1
2023-04-15T10:05:00.815Z,14.1
2023-04-15T10:06:00.895Z,14.1
2023-04-15T10:07:00.816Z,14.1
2023-04-15T10:08:00.849Z,14
2023-04-15T10:09:00.857Z,14
2023-04-15T10:10:00.829Z,14.1
2023-04-15T10:11:00.861Z,14.1
2023-04-15T10:12:00.853Z,14.1
2023-04-15T10:13:00.824Z,14.1
2023-04-15T10:14:01.175Z,14.1
2023-04-15T10:15:00.877Z,14.1
2023-04-15T10:16:00.863Z,14.1
2023-04-15T10:17:00.831Z,14
2023-04-15T10:18:00.936Z,14
2023-04-15T10:19:00.855Z,14.1
2023-04-15T10:20:00.868Z,14.1
2023-04-15T10:21:00.899Z,14.1
2023-04-15T10:22:00.849Z,14.2
2023-04-15T10:23:00.870Z,14.2
2023-04-15T10:24:01.208Z,14.2
2023-04-15T10:25:00.911Z,14.1
2023-04-15T10:26:00.867Z,14.1
2023-04-15T10:27:00.935Z,14.1
2023-04-15T10:28:00.914Z,14
2023-04-15T10:29:00.862Z,13.9
2023-04-15T10:30:00.877Z,13.9
2023-04-15T10:31:00.823Z,13.8
2023-04-15T10:32:00.771Z,13.8
2023-04-15T10:33:00.751Z,13.8
2023-04-15T10:34:01.011Z,13.7
2023-04-15T10:35:00.692Z,13.5
2023-04-15T10:36:00.657Z,13.4
2023-04-15T10:37:00.611Z,13.2
2023-04-15T10:38:00.616Z,13.1
2023-04-15T10:39:00.610Z,13.1
2023-04-15T10:40:00.553Z,13.1
2023-04-15T10:41:00.524Z,13.1
2023-04-15T10:42:00.467Z,13.2
2023-04-15T10:43:00.449Z,13.2
2023-04-15T10:44:00.630Z,13.1
2023-04-15T10:45:00.459Z,13.1
2023-04-15T10:46:00.426Z,13.1
2023-04-15T10:47:00.705Z,13.2
2023-04-15T10:48:02.280Z,13.2
2023-04-15T10:49:00.466Z,13.2
2023-04-15T10:50:00.482Z,13.2
2023-04-15T10:51:00.444Z,13.3
2023-04-15T10:52:00.434Z,13.3
2023-04-15T10:53:00.458Z,13.3
2023-04-15T10:54:01.445Z,13.3
2023-04-15T10:55:00.461Z,13.4
2023-04-15T10:56:00.435Z,13.4
2023-04-15T10:57:00.442Z,13.5
2023-04-15T10:58:00.429Z,13.5
2023-04-15T10:59:00.436Z,13.5
2023-04-15T11:00:00.506Z,13.5
2023-04-15T11:01:00.459Z,13.6
2023-04-15T11:02:00.657Z,13.6
2023-04-15T11:03:00.611Z,13.6
2023-04-15T17:51:00.346Z,10.8
2023-04-15T17:52:00.339Z,10.8
2023-04-15T17:53:00.289Z,10.8
2023-04-15T17:54:00.291Z,10.8
2023-04-15T17:55:00.286Z,10.7
2023-04-15T17:56:00.313Z,10.6
2023-04-15T17:57:00.360Z,10.6
2023-04-15T17:58:00.315Z,10.6
2023-04-15T17:59:00.312Z,10.6
2023-04-15T18:00:00.400Z,10.6
2023-04-15T18:01:00.326Z,10.6
2023-04-15T18:02:00.498Z,10.6
2023-04-15T18:03:00.463Z,10.5
2023-04-15T18:04:00.491Z,10.5
2023-04-15T18:05:00.605Z,10.5
2023-04-15T18:06:00.331Z,10.5
2023-04-15T18:07:00.308Z,10.5
2023-04-15T18:08:00.307Z,10.4
2023-04-15T18:09:00.310Z,10.4
2023-04-15T18:10:00.336Z,10.4
2023-04-15T18:11:00.322Z,10.4
2023-04-15T18:12:00.310Z,10.3
2023-04-15T18:13:00.320Z,10.2
2023-04-15T18:14:00.337Z,10.3
2023-04-15T18:15:00.331Z,10.3
2023-04-15T18:16:00.332Z,10.3
2023-04-15T18:17:00.310Z,10.3
2023-04-15T18:18:00.363Z,10.3
2023-04-15T18:19:00.362Z,10.3
2023-04-15T18:20:00.346Z,10.2
2023-04-15T18:21:00.317Z,10.3
2023-04-15T18:22:00.726Z,10.3
2023-04-15T18:23:00.317Z,10.2
2023-04-15T18:24:00.354Z,10.2
2023-04-15T18:25:00.331Z,10.2
2023-04-15T18:26:00.333Z,10.2
2023-04-15T18:27:00.366Z,10.2
2023-04-15T18:28:00.320Z,10.2
2023-04-15T18:29:00.361Z,10.1
2023-04-15T18:30:00.402Z,10.1
2023-04-15T18:31:00.328Z,10.1
2023-04-15T18:32:00.600Z,10.1
2023-04-15T18:33:00.419Z,10
2023-04-15T18:34:00.360Z,10.1
2023-04-15T18:35:00.356Z,10
2023-04-15T18:36:00.345Z,10
2023-04-15T18:37:00.342Z,9.9
2023-04-15T18:38:00.346Z,9.9
2023-04-15T18:39:00.375Z,9.9
2023-04-15T18:40:00.348Z,10
2023-04-15T18:41:00.349Z,10
2023-04-15T18:42:00.372Z,9.9
2023-04-15T18:43:00.352Z,9.9
2023-04-15T18:44:00.377Z,9.8
2023-04-15T18:45:00.381Z,9.8
2023-04-15T18:46:00.428Z,9.8
2023-04-15T18:47:00.366Z,9.8
2023-04-15T18:48:00.375Z,9.8
2023-04-15T18:49:00.379Z,9.8
2023-04-15T18:50:00.373Z,9.8
2023-04-15T18:51:00.348Z,9.7
2023-04-15T18:52:00.346Z,9.7
2023-04-15T18:53:00.354Z,9.7
2023-04-15T18:54:00.373Z,9.7
2023-04-15T18:55:00.381Z,9.6
2023-04-15T18:56:00.356Z,9.6
2023-04-15T18:57:00.385Z,9.6
2023-04-15T18:58:06.410Z,9.6
2023-04-15T18:59:23.112Z,9.6
2023-04-15T19:00:00.354Z,9.6
2023-04-15T19:01:00.430Z,9.5
2023-04-15T19:02:00.479Z,9.5
2023-04-15T19:03:00.442Z,9.5
2023-04-15T19:04:00.432Z,9.5
2023-04-15T19:05:00.385Z,9.5
2023-04-15T19:06:00.395Z,9.4
2023-04-15T19:07:00.365Z,9.4
2023-04-15T19:08:00.389Z,9.4
2023-04-15T19:09:00.400Z,9.4
2023-04-15T19:10:00.372Z,9.4
2023-04-15T19:11:00.371Z,9.4
2023-04-15T19:12:00.394Z,9.4
2023-04-15T19:13:00.374Z,9.4
2023-04-15T19:14:00.411Z,9.4
2023-04-15T19:15:00.399Z,9.4
2023-04-15T19:16:00.445Z,9.4
2023-04-15T19:17:00.435Z,9.4
2023-04-15T19:18:00.446Z,9.4
2023-04-15T19:19:00.376Z,9.4
2023-04-15T19:20:00.445Z,9.4
2023-04-15T19:21:00.392Z,9.4
2023-04-15T19:22:00.377Z,9.4
2023-04-15T19:23:00.385Z,9.4
2023-04-15T19:24:00.376Z,9.4
2023-04-15T19:25:00.406Z,9.4
2023-04-15T19:26:00.419Z,9.4
2023-04-15T19:27:00.386Z,9.4
2023-04-15T19:28:00.394Z,9.3
2023-04-15T19:29:00.410Z,9.3
2023-04-15T19:30:00.431Z,9.2
2023-04-15T19:31:00.480Z,9.2
2023-04-15T19:32:00.397Z,9.2
2023-04-15T19:33:00.567Z,9.1
2023-04-15T19:34:00.407Z,9.1
2023-04-15T19:35:00.426Z,9.1
2023-04-15T19:36:00.415Z,9.1
2023-04-15T19:37:00.403Z,9.1
2023-04-15T19:38:00.402Z,9.1
2023-04-15T19:39:00.430Z,9
2023-04-15T19:40:00.453Z,9
2023-04-15T19:41:00.422Z,8.9
2023-04-15T19:42:00.408Z,8.9
2023-04-15T19:43:00.410Z,8.9
2023-04-15T19:44:00.413Z,8.9
2023-04-15T19:45:00.471Z,8.9
2023-04-15T19:46:00.513Z,8.9
2023-04-15T19:47:00.423Z,8.8
2023-04-15T19:48:00.463Z,8.8
2023-04-15T19:49:00.396Z,8.8
2023-04-15T19:50:00.460Z,8.8
2023-04-15T19:51:00.438Z,8.8
2023-04-15T19:52:00.434Z,8.7
2023-04-15T19:53:00.405Z,8.7
2023-04-15T19:54:00.412Z,8.6
2023-04-15T19:55:00.442Z,8.6
2023-04-15T19:56:00.438Z,8.6
2023-04-15T19:57:00.445Z,8.6
2023-04-15T19:58:00.422Z,8.6
2023-04-15T19:59:00.422Z,8.6
2023-04-15T20:00:00.415Z,8.5
2023-04-15T20:01:00.436Z,8.5
2023-04-15T20:02:00.533Z,8.4
2023-04-15T20:03:00.810Z,8.4
2023-04-15T20:04:00.637Z,8.4
2023-04-15T20:05:00.458Z,8.4
2023-04-15T20:06:00.420Z,8.4
2023-04-15T20:07:00.451Z,8.4
2023-04-15T20:08:00.428Z,8.4
2023-04-15T20:09:00.443Z,8.4
2023-04-15T20:10:00.433Z,8.4
2023-04-15T20:11:00.456Z,8.4
2023-04-15T20:12:09.715Z,8.3
2023-04-15T20:13:00.439Z,8.3
2023-04-15T20:14:00.456Z,8.2
2023-04-15T20:15:00.442Z,8.2
2023-04-15T20:16:00.532Z,8.2
2023-04-15T20:17:00.450Z,8.3
2023-04-15T20:18:00.656Z,8.2
2023-04-15T20:19:00.436Z,8.2
2023-04-15T20:20:00.455Z,8.2
2023-04-15T20:21:00.456Z,8.2
2023-04-15T20:22:00.470Z,8.2
2023-04-15T20:23:00.438Z,8.2
2023-04-15T20:24:00.446Z,8.2
2023-04-15T20:25:00.479Z,8.2
2023-04-15T20:26:00.441Z,8.2
2023-04-15T20:27:00.462Z,8.2
2023-04-15T20:28:01.100Z,8.2
2023-04-15T20:29:00.445Z,8.2
2023-04-15T20:30:00.510Z,8.2